createdAt,value
2023-01-07T00:03:48.094Z,2.97
2023-01-07T00:07:59.735Z,2.42
2023-01-07T00:12:11.255Z,2.50
2023-01-07T00:16:26.413Z,2.35
2023-01-07T00:20:37.988Z,2.80
2023-01-07T00:24:49.537Z,2.85
2023-01-07T00:29:01.338Z,2.88
2023-01-07T00:33:15.502Z,2.70
2023-01-07T00:37:45.547Z,2.17
2023-01-07T00:42:15.826Z,3.00
2023-01-07T00:46:27.639Z,2.58
2023-01-07T00:50:39.848Z,2.95
2023-01-07T00:54:51.387Z,2.72
2023-01-07T00:59:02.993Z,2.75
2023-01-07T01:03:15.356Z,2.78
2023-01-07T01:07:26.966Z,2.78
2023-01-07T01:11:38.501Z,2.63
2023-01-07T01:15:50.067Z,2.53
2023-01-07T01:20:02.157Z,2.90
2023-01-07T01:24:13.710Z,2.63
2023-01-07T01:28:25.271Z,2.80
2023-01-07T01:32:37.925Z,3.25
2023-01-07T01:36:49.990Z,2.55
2023-01-07T01:41:02.453Z,3.38
2023-01-07T01:45:14.762Z,3.13
2023-01-07T01:49:31.401Z,2.90
2023-01-07T01:53:42.975Z,2.42
2023-01-07T01:57:58.263Z,1.88
2023-01-07T02:02:10.505Z,2.60
2023-01-07T02:06:26.089Z,2.60
2023-01-07T02:10:39.365Z,2.38
2023-01-07T02:15:07.661Z,2.38
2023-01-07T02:19:49.937Z,2.08
2023-01-07T02:24:16.675Z,1.98
2023-01-07T02:28:59.323Z,2.40
2023-01-07T02:33:17.088Z,1.95
2023-01-07T02:37:53.367Z,1.88
2023-01-07T02:42:21.897Z,2.42
2023-01-07T02:46:42.484Z,2.03
2023-01-07T02:50:54.184Z,2.20
2023-01-07T02:55:22.560Z,2.60
2023-01-07T02:59:50.088Z,2.50
2023-01-07T03:04:19.850Z,2.05
2023-01-07T03:08:34.482Z,2.08
2023-01-07T03:12:52.360Z,2.55
2023-01-07T03:17:09.351Z,2.40
2023-01-07T03:21:22.590Z,1.90
2023-01-07T03:25:41.824Z,2.05
2023-01-07T03:29:54.442Z,2.10
2023-01-07T03:34:15.088Z,2.33
2023-01-07T03:38:28.078Z,2.10
2023-01-07T03:42:41.867Z,1.63
2023-01-07T03:47:04.073Z,1.98
2023-01-07T03:51:15.728Z,2.15
2023-01-07T03:55:28.474Z,1.88
2023-01-07T03:59:41.563Z,2.33
2023-01-07T04:03:53.607Z,1.52
2023-01-07T04:08:05.410Z,1.40
2023-01-07T04:12:20.557Z,1.90
2023-01-07T04:16:32.481Z,1.50
2023-01-07T04:20:48.039Z,1.83
2023-01-07T04:25:00.739Z,1.33
2023-01-07T04:29:12.399Z,1.95
2023-01-07T04:33:24.038Z,1.80
2023-01-07T04:37:35.666Z,1.83
2023-01-07T04:41:47.295Z,2.00
2023-01-07T04:45:59.130Z,1.73
2023-01-07T04:50:10.811Z,1.50
2023-01-07T04:54:22.463Z,1.77
2023-01-07T04:58:34.509Z,1.55
2023-01-07T05:02:46.827Z,1.90
2023-01-07T05:06:58.478Z,1.73
2023-01-07T05:11:11.381Z,1.73
2023-01-07T05:15:27.183Z,1.50
2023-01-07T05:19:40.153Z,1.40
2023-01-07T05:23:54.599Z,2.03
2023-01-07T05:28:07.106Z,1.33
2023-01-07T05:32:22.372Z,1.80
2023-01-07T05:36:35.450Z,1.40
2023-01-07T05:40:49.905Z,1.60
2023-01-07T05:45:06.001Z,1.63
2023-01-07T05:49:17.565Z,1.30
2023-01-07T05:53:29.090Z,0.98
2023-01-07T05:57:40.602Z,1.50
2023-01-07T06:01:52.134Z,1.25
2023-01-07T06:06:07.183Z,1.33
2023-01-07T06:10:18.939Z,1.42
2023-01-07T06:14:30.498Z,1.42
2023-01-07T06:18:42.169Z,1.73
2023-01-07T06:22:54.384Z,1.30
2023-01-07T06:27:06.214Z,2.35
2023-01-07T06:31:17.917Z,1.50
2023-01-07T06:35:29.629Z,1.30
2023-01-07T06:39:41.252Z,1.38
2023-01-07T06:43:52.881Z,1.30
2023-01-07T06:48:04.807Z,1.10
2023-01-07T06:52:16.381Z,1.15
2023-01-07T06:56:27.968Z,1.17
2023-01-07T07:00:39.487Z,1.10
2023-01-07T07:04:51.342Z,1.00
2023-01-07T07:09:03.032Z,1.10
2023-01-07T07:13:14.714Z,1.10
2023-01-07T07:17:26.515Z,0.88
2023-01-07T07:21:38.083Z,0.93
2023-01-07T07:25:49.703Z,1.15
2023-01-07T07:30:01.298Z,1.13
2023-01-07T07:34:13.108Z,0.70
2023-01-07T07:38:24.761Z,0.70
2023-01-07T07:43:10.637Z,0.80
2023-01-07T07:47:11.138Z,0.95
2023-01-07T07:51:22.931Z,1.10
2023-01-07T07:55:36.835Z,0.90
2023-01-07T07:59:48.424Z,1.02
2023-01-07T08:04:00.855Z,0.88
2023-01-07T08:08:14.810Z,1.27
2023-01-07T08:12:26.375Z,0.60
2023-01-07T08:16:38.200Z,1.58
2023-01-07T08:20:50.600Z,0.95
2023-01-07T08:25:02.853Z,1.10
2023-01-07T08:29:14.605Z,1.10
2023-01-07T08:33:26.223Z,0.95
2023-01-07T08:37:37.883Z,1.27
2023-01-07T08:41:49.515Z,0.80
2023-01-07T08:46:01.086Z,1.10
2023-01-07T08:50:12.651Z,0.73
2023-01-07T08:54:24.272Z,1.30
2023-01-07T08:58:35.849Z,0.85
2023-01-07T09:03:02.528Z,1.10
2023-01-07T09:07:14.114Z,1.33
2023-01-07T09:11:25.748Z,1.20
2023-01-07T09:15:37.321Z,0.82
2023-01-07T09:19:48.885Z,0.88
2023-01-07T09:24:00.716Z,0.73
2023-01-07T09:28:12.373Z,0.70
2023-01-07T09:32:25.975Z,0.75
2023-01-07T09:36:37.627Z,0.50
2023-01-07T09:40:49.652Z,0.70
2023-01-07T09:45:29.325Z,0.90
2023-01-07T09:49:42.278Z,1.00
2023-01-07T09:53:57.086Z,0.82
2023-01-07T09:58:18.383Z,1.17
2023-01-07T10:02:50.955Z,0.70
2023-01-07T10:07:09.438Z,0.90
2023-01-07T10:11:46.830Z,0.88
2023-01-07T10:16:14.653Z,0.95
2023-01-07T10:20:51.103Z,0.90
2023-01-07T10:25:19.598Z,1.00
2023-01-07T10:29:50.898Z,0.60
2023-01-07T10:34:03.167Z,1.05
2023-01-07T10:38:19.333Z,1.00
2023-01-07T10:42:54.556Z,1.33
2023-01-07T10:47:23.858Z,1.17
2023-01-07T10:51:52.594Z,0.80
2023-01-07T10:56:31.505Z,0.95
2023-01-07T11:00:47.127Z,0.68
2023-01-07T11:05:00.145Z,1.50
2023-01-07T11:09:18.170Z,1.10
2023-01-07T11:13:33.087Z,0.80
2023-01-07T11:17:50.884Z,1.05
2023-01-07T11:22:02.554Z,0.70
2023-01-07T11:26:24.968Z,0.60
2023-01-07T11:30:37.028Z,0.70
2023-01-07T11:34:53.630Z,0.52
2023-01-07T11:39:30.011Z,0.73
2023-01-07T11:43:48.697Z,0.57
2023-01-07T11:48:02.673Z,0.50
2023-01-07T11:52:19.699Z,0.60
2023-01-07T11:56:36.163Z,0.35
2023-01-07T12:01:07.846Z,0.82
2023-01-07T12:05:26.803Z,0.60
2023-01-07T12:09:40.894Z,0.40
2023-01-07T12:13:53.219Z,0.43
2023-01-07T12:18:07.822Z,0.55
2023-01-07T12:22:47.113Z,0.52
2023-01-07T12:27:08.216Z,0.80
2023-01-07T12:31:40.731Z,0.73
2023-01-07T12:35:55.610Z,0.70
2023-01-07T12:40:21.542Z,0.70
2023-01-07T12:44:39.559Z,0.80
2023-01-07T12:49:07.882Z,0.90
2023-01-07T12:53:41.201Z,0.50
2023-01-07T12:58:15.066Z,0.60
2023-01-07T13:02:29.703Z,0.68
2023-01-07T13:06:58.874Z,0.90
2023-01-07T13:11:43.897Z,0.50
2023-01-07T13:15:59.065Z,0.77
2023-01-07T13:20:33.842Z,0.80
2023-01-07T13:25:30.353Z,0.80
2023-01-07T13:30:04.436Z,0.95
2023-01-07T13:34:28.575Z,0.55
2023-01-07T13:39:02.325Z,1.20
2023-01-07T13:43:44.849Z,0.90
2023-01-07T13:47:59.448Z,0.90
2023-01-07T13:52:17.570Z,0.73
2023-01-07T13:56:32.937Z,0.80
2023-01-07T14:01:07.796Z,1.00
2023-01-07T14:05:19.447Z,1.33
2023-01-07T14:09:37.508Z,0.80
2023-01-07T14:14:05.300Z,1.17
2023-01-07T14:18:57.166Z,0.90
2023-01-07T14:23:22.638Z,1.20
2023-01-07T14:27:53.528Z,1.00
2023-01-07T14:32:23.279Z,1.00
2023-01-07T14:37:00.902Z,1.13
2023-01-07T14:41:17.861Z,1.65
2023-01-07T14:45:41.773Z,2.00
2023-01-07T14:50:11.883Z,1.40
2023-01-07T14:54:49.410Z,0.98
2023-01-07T14:59:26.057Z,1.52
2023-01-07T15:04:35.827Z,1.58
2023-01-07T15:09:22.539Z,1.45
2023-01-07T15:13:59.665Z,1.30
2023-01-07T15:18:12.713Z,1.30
2023-01-07T15:22:31.866Z,1.33
2023-01-07T15:27:02.048Z,1.20
2023-01-07T15:31:21.278Z,1.05
2023-01-07T15:35:39.384Z,1.15
2023-01-07T15:39:57.939Z,1.00
2023-01-07T15:44:32.619Z,0.93
2023-01-07T15:48:44.169Z,1.00
2023-01-07T15:52:57.540Z,1.83
2023-01-07T15:57:31.784Z,1.00
2023-01-07T16:01:49.502Z,1.10
2023-01-07T16:06:01.731Z,1.25
2023-01-07T16:10:39.651Z,1.20
2023-01-07T16:14:51.625Z,1.10
2023-01-07T16:19:04.346Z,1.02
2023-01-07T16:23:21.446Z,1.10
2023-01-07T16:27:33.100Z,1.35
2023-01-07T16:31:45.232Z,1.27
2023-01-07T16:36:01.127Z,1.13
2023-01-07T16:40:21.104Z,1.20
2023-01-07T16:44:44.936Z,0.95
2023-01-07T16:49:11.777Z,1.40
2023-01-07T16:53:33.542Z,1.15
2023-01-07T16:57:47.911Z,1.15
2023-01-07T17:02:21.280Z,1.05
2023-01-07T17:06:43.376Z,1.33
2023-01-07T17:11:02.245Z,1.40
2023-01-07T17:15:46.227Z,1.60
2023-01-07T17:20:13.491Z,1.45
2023-01-07T17:24:28.221Z,0.95
2023-01-07T17:28:50.498Z,1.40
2023-01-07T17:33:02.519Z,1.10
2023-01-07T17:37:15.898Z,1.25
2023-01-07T17:41:46.047Z,1.30
2023-01-07T17:45:57.900Z,1.02
2023-01-07T17:50:12.772Z,1.15
2023-01-07T17:54:25.486Z,1.40
2023-01-07T17:58:38.295Z,1.67
2023-01-07T18:02:51.183Z,1.40
2023-01-07T18:07:02.870Z,1.33
2023-01-07T18:11:36.071Z,1.33
2023-01-07T18:15:47.747Z,1.30
2023-01-07T18:19:59.364Z,1.80
2023-01-07T18:24:19.700Z,1.63
2023-01-07T18:28:31.733Z,1.70
2023-01-07T18:32:43.964Z,1.20
2023-01-07T18:36:55.582Z,1.17
2023-01-07T18:41:07.361Z,1.80
2023-01-07T18:45:19.133Z,2.08
2023-01-07T18:49:30.734Z,1.63
2023-01-07T18:53:42.308Z,1.70
2023-01-07T18:57:53.949Z,2.17
2023-01-07T19:02:08.853Z,1.52
2023-01-07T19:06:20.520Z,3.53
2023-01-07T19:10:32.191Z,1.65
2023-01-07T19:14:43.781Z,1.50
2023-01-07T19:18:55.349Z,1.13
2023-01-07T19:23:06.985Z,2.20
2023-01-07T19:27:18.610Z,1.13
2023-01-07T19:31:30.223Z,1.23
2023-01-07T19:35:41.791Z,1.27
2023-01-07T19:39:53.495Z,1.65
2023-01-07T19:44:05.151Z,1.80
2023-01-07T19:48:16.740Z,1.60
2023-01-07T19:52:28.366Z,1.67
2023-01-07T19:56:40.655Z,1.60
2023-01-07T20:00:52.319Z,1.50
2023-01-07T20:05:04.154Z,1.23
2023-01-07T20:09:15.934Z,1.13
2023-01-07T20:13:29.659Z,1.48
2023-01-07T20:17:41.300Z,1.60
2023-01-07T20:21:52.896Z,1.75
2023-01-07T20:26:08.929Z,1.58
2023-01-07T20:30:20.593Z,1.55
2023-01-07T20:34:32.207Z,1.00
2023-01-07T20:38:45.182Z,1.13
2023-01-07T20:42:58.767Z,1.40
2023-01-07T20:47:10.377Z,1.05
2023-01-07T20:51:22.462Z,1.02
2023-01-07T20:55:35.413Z,1.10
2023-01-07T20:59:47.045Z,0.90
2023-01-07T21:03:58.728Z,1.10
2023-01-07T21:08:10.641Z,1.33
2023-01-07T21:12:22.258Z,0.88
2023-01-07T21:16:34.012Z,1.00
2023-01-07T21:20:46.480Z,1.00
2023-01-07T21:24:58.123Z,0.90
2023-01-07T21:29:09.943Z,1.05
2023-01-07T21:33:21.551Z,0.90
2023-01-07T21:37:33.183Z,1.13
2023-01-07T21:41:44.775Z,0.95
2023-01-07T21:46:00.024Z,0.98
2023-01-07T21:50:14.759Z,1.02
2023-01-07T21:54:26.512Z,1.10
2023-01-07T21:58:39.048Z,0.80
2023-01-07T22:02:50.712Z,1.23
2023-01-07T22:07:02.326Z,1.33
2023-01-07T22:11:15.331Z,0.77
2023-01-07T22:15:27.014Z,1.33
2023-01-07T22:19:38.759Z,1.23
2023-01-07T22:23:50.708Z,1.40
2023-01-07T22:28:04.596Z,0.80
2023-01-07T22:32:16.142Z,1.15
2023-01-07T22:36:49.454Z,1.15
2023-01-07T22:41:03.252Z,1.23
2023-01-07T22:45:21.168Z,1.17
2023-01-07T22:49:33.233Z,1.10
2023-01-07T22:53:45.060Z,0.85
2023-01-07T22:57:56.646Z,1.13
2023-01-07T23:02:08.280Z,0.90
2023-01-07T23:06:20.051Z,0.98
2023-01-07T23:10:38.435Z,1.00
2023-01-07T23:14:50.029Z,0.90
2023-01-07T23:19:01.640Z,0.75
2023-01-07T23:23:13.216Z,1.00
2023-01-07T23:27:24.759Z,1.60
2023-01-07T23:31:37.472Z,1.27
2023-01-07T23:35:49.037Z,1.20
2023-01-07T23:40:00.569Z,1.40
2023-01-07T23:44:12.064Z,1.23
2023-01-07T23:48:23.837Z,1.50
2023-01-07T23:52:35.378Z,1.33
2023-01-07T23:56:48.572Z,1.08
